Time;durP1;ratioP1;P1;durP2;ratioP2;P2;SDS_P1;SDS_P2;PMS_P1;PMS_P2;Temp;Humidity;BMP_temperature;BMP_pressure;BME280_temperature;BME280_humidity;BME280_pressure;Samples;Min_cycle;Max_cycle;Signal;HPM_P1;HPM_P2
2022/07/12 00:04:49;;;;;;;2.33;1.10;;;15.90;99.90;;;;;;12467952;28;20048;-82
2022/07/12 00:10:51;;;;;;;1.60;1.30;;;15.80;99.90;;;;;;12456166;28;20553;-81
2022/07/12 00:16:53;;;;;;;4.13;1.52;;;15.80;99.90;;;;;;12457565;28;20053;-81
2022/07/12 00:22:55;;;;;;;4.15;1.20;;;15.70;99.90;;;;;;12493398;28;20179;-82
2022/07/12 00:28:57;;;;;;;3.25;1.20;;;15.60;99.90;;;;;;12475763;28;20053;-81
2022/07/12 00:34:59;;;;;;;5.03;1.40;;;15.70;99.90;;;;;;12466814;28;20202;-81
2022/07/12 00:41:01;;;;;;;3.80;1.55;;;15.60;99.90;;;;;;12482000;28;20192;-82
2022/07/12 00:47:04;;;;;;;3.67;1.00;;;15.60;99.90;;;;;;12424884;28;20140;-81
2022/07/12 00:53:07;;;;;;;10.13;1.53;;;15.50;99.90;;;;;;12452641;28;20045;-81
2022/07/12 00:59:10;;;;;;;2.55;1.30;;;15.50;99.90;;;;;;12467444;28;20057;-82
2022/07/12 01:05:12;;;;;;;6.47;1.50;;;15.50;99.90;;;;;;12473484;28;20075;-81
2022/07/12 01:11:15;;;;;;;5.80;1.58;;;15.40;99.90;;;;;;12462644;28;20137;-81
2022/07/12 01:17:20;;;;;;;2.97;1.40;;;15.40;99.90;;;;;;12457085;28;20165;-82
2022/07/12 01:23:24;;;;;;;9.68;1.77;;;15.40;99.90;;;;;;12497168;28;20487;-81
2022/07/12 01:29:26;;;;;;;3.40;2.05;;;15.50;99.90;;;;;;12512059;28;20049;-82
2022/07/12 01:35:28;;;;;;;4.75;1.67;;;15.50;99.90;;;;;;12461418;28;20859;-82
2022/07/12 01:41:32;;;;;;;4.28;1.80;;;15.40;99.90;;;;;;12449931;28;20049;-81
2022/07/12 01:47:34;;;;;;;4.17;1.77;;;15.40;99.90;;;;;;12478360;28;20092;-81
2022/07/12 01:53:36;;;;;;;4.70;1.50;;;15.40;99.90;;;;;;12469336;28;20041;-81
2022/07/12 01:59:39;;;;;;;5.30;1.77;;;15.30;99.90;;;;;;12478396;28;20041;-80
2022/07/12 02:05:41;;;;;;;3.30;2.08;;;15.30;99.90;;;;;;12488752;28;20037;-81
2022/07/12 02:11:46;;;;;;;6.93;2.33;;;15.30;99.90;;;;;;12474513;28;20052;-81
2022/07/12 02:17:48;;;;;;;9.68;2.55;;;15.20;99.90;;;;;;12466288;28;20093;-81
2022/07/12 02:23:50;;;;;;;6.68;2.22;;;15.10;99.90;;;;;;12493140;28;20041;-81
2022/07/12 02:29:52;;;;;;;8.35;2.42;;;15.20;99.90;;;;;;12464743;28;20144;-81
2022/07/12 02:35:54;;;;;;;6.97;2.17;;;15.20;99.90;;;;;;12461072;28;20054;-82
2022/07/12 02:41:55;;;;;;;14.30;2.60;;;15.00;99.90;;;;;;12481743;28;20046;-82
2022/07/12 02:47:57;;;;;;;7.43;2.70;;;14.90;99.90;;;;;;12436836;28;20141;-82
2022/07/12 02:53:59;;;;;;;12.30;2.95;;;14.80;99.90;;;;;;12455259;28;20049;-82
2022/07/12 03:00:01;;;;;;;9.50;2.70;;;14.80;99.90;;;;;;12465469;28;20061;-81
2022/07/12 03:06:03;;;;;;;8.57;2.95;;;14.80;99.90;;;;;;12423356;28;20099;-81
2022/07/12 03:12:07;;;;;;;7.10;2.90;;;14.90;99.90;;;;;;12453699;28;20053;-82
2022/07/12 03:18:09;;;;;;;9.38;2.97;;;14.80;99.90;;;;;;12472883;28;20616;-82
2022/07/12 03:24:11;;;;;;;9.70;3.08;;;14.80;99.90;;;;;;12461558;28;20053;-81
2022/07/12 03:30:13;;;;;;;10.32;3.30;;;14.70;99.90;;;;;;12440838;28;20099;-81
2022/07/12 03:36:15;;;;;;;11.40;3.15;;;14.70;99.90;;;;;;12436999;28;20107;-82
2022/07/12 03:42:16;;;;;;;15.40;4.22;;;14.90;99.90;;;;;;12465297;28;20045;-82
2022/07/12 03:48:18;;;;;;;15.82;4.05;;;14.90;99.90;;;;;;12489798;28;20547;-82
2022/07/12 03:54:20;;;;;;;10.68;3.75;;;14.90;99.90;;;;;;12490600;28;20099;-81
2022/07/12 04:00:22;;;;;;;11.82;3.70;;;14.90;99.90;;;;;;12462097;28;20106;-82
2022/07/12 04:06:24;;;;;;;11.90;4.00;;;14.70;99.90;;;;;;12483468;28;20045;-81
2022/07/12 04:12:26;;;;;;;18.52;3.80;;;14.80;99.90;;;;;;12469542;28;20041;-81
2022/07/12 04:18:28;;;;;;;18.27;4.10;;;14.90;99.90;;;;;;12456789;28;20103;-81
2022/07/12 04:24:31;;;;;;;11.30;4.30;;;15.00;99.90;;;;;;12458887;28;20091;-82
2022/07/12 04:30:32;;;;;;;15.40;4.22;;;15.00;99.90;;;;;;12476613;28;20120;-82
2022/07/12 04:36:34;;;;;;;9.75;4.18;;;15.10;99.90;;;;;;12490847;28;20081;-81
2022/07/12 04:42:36;;;;;;;9.60;4.13;;;15.10;99.90;;;;;;12487222;28;20037;-81
2022/07/12 04:48:38;;;;;;;11.00;5.15;;;15.10;99.90;;;;;;12461493;28;20420;-81
2022/07/12 04:54:40;;;;;;;10.88;4.70;;;15.10;99.90;;;;;;12467167;28;20046;-81
2022/07/12 05:00:43;;;;;;;9.60;5.47;;;15.10;99.90;;;;;;12452195;28;20387;-81
2022/07/12 05:06:45;;;;;;;8.05;4.85;;;15.10;99.90;;;;;;12453562;28;20107;-80
2022/07/12 05:12:46;;;;;;;8.32;5.47;;;15.20;99.90;;;;;;12440672;28;20045;-81
2022/07/12 05:18:48;;;;;;;7.65;4.95;;;15.20;99.90;;;;;;12467398;28;20100;-81
2022/07/12 05:24:50;;;;;;;7.30;4.53;;;15.30;99.90;;;;;;12467931;28;20049;-82
2022/07/12 05:30:52;;;;;;;7.95;4.93;;;15.40;99.90;;;;;;12461634;28;20048;-81
2022/07/12 05:36:54;;;;;;;5.15;4.40;;;15.40;99.90;;;;;;12456270;28;20134;-81
2022/07/12 05:42:56;;;;;;;5.05;3.90;;;15.50;99.90;;;;;;12451308;28;20103;-81
2022/07/12 05:48:58;;;;;;;5.20;3.60;;;15.50;99.90;;;;;;12463684;28;20073;-81
2022/07/12 05:54:59;;;;;;;4.05;3.55;;;15.70;99.90;;;;;;12468056;28;20509;-81
2022/07/12 06:01:01;;;;;;;5.72;3.53;;;15.70;99.90;;;;;;12485768;28;20400;-81
2022/07/12 06:07:04;;;;;;;4.35;3.30;;;15.70;99.90;;;;;;12462680;28;20464;-82
2022/07/12 06:13:05;;;;;;;4.13;3.47;;;15.80;99.90;;;;;;12463001;28;20583;-81
2022/07/12 06:19:07;;;;;;;5.60;3.30;;;15.90;99.90;;;;;;12498507;28;20183;-82
2022/07/12 06:25:09;;;;;;;5.20;3.33;;;15.80;99.90;;;;;;12455378;28;20137;-81
2022/07/12 06:31:31;;;;;;;4.55;2.80;;;15.80;99.90;;;;;;12483202;28;20049;-81
2022/07/12 06:37:36;;;;;;;3.30;2.55;;;16.10;99.90;;;;;;12473030;28;20128;-81
2022/07/12 06:43:38;;;;;;;4.35;2.90;;;16.00;99.90;;;;;;12465028;28;20071;-81
2022/07/12 06:49:40;;;;;;;3.13;2.40;;;16.00;99.90;;;;;;12485053;28;20099;-81
2022/07/12 06:55:45;;;;;;;3.55;2.20;;;16.00;99.90;;;;;;12465288;28;20148;-81
2022/07/12 07:01:46;;;;;;;2.80;1.88;;;16.00;99.90;;;;;;12466744;28;20094;-81
2022/07/12 07:07:48;;;;;;;3.55;1.90;;;16.10;99.90;;;;;;12470024;28;20045;-82
2022/07/12 07:13:50;;;;;;;3.55;2.38;;;16.10;99.90;;;;;;12462597;28;20123;-82
2022/07/12 07:19:53;;;;;;;3.13;2.10;;;16.40;99.90;;;;;;12484081;28;20049;-81
2022/07/12 07:25:55;;;;;;;3.67;2.42;;;16.60;99.90;;;;;;12479142;28;20559;-80
2022/07/12 07:31:57;;;;;;;4.57;1.98;;;16.60;99.90;;;;;;12473085;28;20118;-81
2022/07/12 07:37:59;;;;;;;3.72;2.08;;;16.70;99.90;;;;;;12428719;28;20049;-80
2022/07/12 07:44:01;;;;;;;5.80;1.95;;;16.70;99.90;;;;;;12418510;28;20038;-82
2022/07/12 07:50:03;;;;;;;5.47;1.88;;;16.80;99.90;;;;;;12435596;28;20058;-82
2022/07/12 07:56:05;;;;;;;3.17;2.17;;;17.00;99.90;;;;;;12426826;28;20046;-82
2022/07/12 08:02:11;;;;;;;2.90;2.00;;;17.10;99.90;;;;;;12436449;28;20399;-82
2022/07/12 08:08:14;;;;;;;3.72;2.00;;;17.20;99.90;;;;;;12431884;28;20528;-81
2022/07/12 08:14:15;;;;;;;3.85;1.85;;;17.30;99.90;;;;;;12433381;28;20115;-82
2022/07/12 08:20:17;;;;;;;3.13;2.22;;;17.40;99.90;;;;;;12423113;28;20161;-82
2022/07/12 08:26:40;;;;;;;6.90;2.05;;;17.50;99.90;;;;;;12413646;28;20038;-81
2022/07/12 08:32:45;;;;;;;4.03;2.00;;;17.60;99.90;;;;;;12438276;28;20152;-81
2022/07/12 08:38:47;;;;;;;3.15;1.95;;;17.70;99.90;;;;;;12483921;28;20107;-82
2022/07/12 08:44:56;;;;;;;2.10;1.40;;;17.80;99.90;;;;;;12465354;28;20041;-81
2022/07/12 08:51:03;;;;;;;2.13;1.30;;;17.90;99.90;;;;;;12457422;28;20046;-82
2022/07/12 08:57:05;;;;;;;2.55;1.30;;;18.10;99.90;;;;;;12462563;28;20181;-82
2022/07/12 09:03:07;;;;;;;4.03;1.77;;;18.20;99.90;;;;;;12463406;28;20095;-81
2022/07/12 09:09:09;;;;;;;3.38;1.83;;;18.20;99.90;;;;;;12484152;28;20049;-81
2022/07/12 09:15:14;;;;;;;2.00;1.30;;;18.30;99.90;;;;;;12457125;28;20422;-81
2022/07/12 09:21:28;;;;;;;4.60;1.90;;;18.50;99.90;;;;;;12463625;28;20092;-81
2022/07/12 09:27:29;;;;;;;2.40;1.43;;;18.70;99.90;;;;;;12435603;28;20054;-81
2022/07/12 09:39:53;;;;;;;3.83;1.65;;;19.10;99.90;;;;;;12473305;28;20073;-81
2022/07/12 09:45:55;;;;;;;;;;;19.10;99.90;;;;;;12500397;28;20160;-81
2022/07/12 09:51:58;;;;;;;3.08;1.60;;;19.30;99.90;;;;;;12446603;28;20435;-81
2022/07/12 09:58:02;;;;;;;2.47;1.63;;;19.60;99.90;;;;;;12457083;28;20126;-81
2022/07/12 10:04:05;;;;;;;2.75;1.70;;;19.70;99.90;;;;;;12489845;28;20140;-82
2022/07/12 10:10:10;;;;;;;2.65;1.60;;;19.90;99.90;;;;;;12468465;28;20524;-81
2022/07/12 10:16:14;;;;;;;3.28;1.80;;;20.30;99.90;;;;;;12473163;28;20084;-81
2022/07/12 10:22:20;;;;;;;3.85;1.77;;;20.40;99.90;;;;;;12480666;28;20536;-82
2022/07/12 10:28:22;;;;;;;3.08;1.85;;;20.60;99.90;;;;;;12485437;28;20497;-83
2022/07/12 10:34:27;;;;;;;4.30;1.70;;;20.80;99.90;;;;;;12471523;28;20057;-81
2022/07/12 10:40:34;;;;;;;3.75;2.10;;;21.00;99.90;;;;;;12471069;28;20052;-82
2022/07/12 10:46:37;;;;;;;2.80;1.10;;;21.10;99.90;;;;;;12475040;28;20118;-82
2022/07/12 10:52:39;;;;;;;1.60;1.10;;;21.20;99.90;;;;;;12458747;28;20501;-82
2022/07/12 10:58:54;;;;;;;3.28;1.15;;;21.60;99.90;;;;;;12458041;28;20493;-81
2022/07/12 11:04:55;;;;;;;2.35;1.23;;;21.70;99.90;;;;;;12470818;28;20169;-81
2022/07/12 11:10:58;;;;;;;2.10;0.80;;;21.80;99.90;;;;;;12492413;28;20100;-82
2022/07/12 11:17:00;;;;;;;1.67;1.10;;;22.00;99.90;;;;;;12477340;28;20105;-82
2022/07/12 11:23:02;;;;;;;1.15;0.90;;;22.10;99.90;;;;;;12466871;28;20088;-82
2022/07/12 11:29:04;;;;;;;2.30;1.27;;;22.20;99.90;;;;;;12495087;28;20113;-83
2022/07/12 11:35:26;;;;;;;2.33;1.13;;;22.30;99.90;;;;;;12472054;28;20503;-82
2022/07/12 11:41:28;;;;;;;2.22;0.90;;;22.40;99.90;;;;;;12459631;28;20041;-81
2022/07/12 11:47:32;;;;;;;1.58;1.10;;;22.60;99.90;;;;;;12462791;28;20088;-82
2022/07/12 11:53:35;;;;;;;4.35;1.10;;;22.80;99.90;;;;;;12454915;28;20145;-82
2022/07/12 11:59:37;;;;;;;1.02;0.63;;;22.90;99.90;;;;;;12438958;28;21355;-82
2022/07/12 12:05:40;;;;;;;2.78;0.93;;;22.70;99.90;;;;;;12475075;28;20037;-82
2022/07/12 12:11:43;;;;;;;4.73;1.00;;;22.80;99.90;;;;;;12475547;28;20056;-81
2022/07/12 12:17:57;;;;;;;3.45;1.50;;;22.80;99.90;;;;;;12460717;28;20049;-82
2022/07/12 12:24:10;;;;;;;1.55;1.10;;;22.90;99.90;;;;;;12459548;28;20164;-83
2022/07/12 12:30:13;;;;;;;3.28;0.90;;;23.10;99.90;;;;;;12454179;28;20050;-83
2022/07/12 12:36:14;;;;;;;1.58;1.20;;;23.30;99.90;;;;;;12450771;28;20144;-82
2022/07/12 12:42:24;;;;;;;3.42;1.50;;;23.40;99.90;;;;;;12450282;28;20156;-82
2022/07/12 12:48:30;;;;;;;2.90;1.38;;;23.40;99.90;;;;;;12462788;28;20041;-82
2022/07/12 12:54:33;;;;;;;3.53;1.20;;;23.60;99.90;;;;;;12465095;28;20152;-82
2022/07/12 13:00:38;;;;;;;1.83;0.73;;;23.80;99.90;;;;;;12462201;28;20184;-82
2022/07/12 13:06:40;;;;;;;1.95;0.95;;;23.90;99.90;;;;;;12483940;28;20045;-82
2022/07/12 13:12:43;;;;;;;1.10;0.82;;;23.80;99.90;;;;;;12488566;28;20564;-82
2022/07/12 13:18:44;;;;;;;2.58;0.95;;;23.80;99.90;;;;;;12492906;28;20461;-82
2022/07/12 13:24:48;;;;;;;2.13;0.70;;;23.90;99.90;;;;;;12452331;28;20076;-84
2022/07/12 13:30:52;;;;;;;2.03;0.95;;;24.00;99.90;;;;;;12462928;28;20171;-82
2022/07/12 13:36:54;;;;;;;5.38;0.88;;;24.10;99.90;;;;;;12447337;28;20061;-83
2022/07/12 13:42:56;;;;;;;1.23;0.70;;;24.20;99.90;;;;;;12481684;28;20046;-82
2022/07/12 13:48:57;;;;;;;1.48;0.90;;;24.30;99.90;;;;;;12483751;28;20128;-83
2022/07/12 13:54:59;;;;;;;0.90;0.60;;;24.30;99.90;;;;;;12472411;28;20050;-82
2022/07/12 14:01:02;;;;;;;3.63;0.60;;;24.40;99.90;;;;;;12478844;28;20068;-82
2022/07/12 14:07:04;;;;;;;1.70;0.60;;;24.50;99.90;;;;;;12463231;28;20129;-83
2022/07/12 14:13:06;;;;;;;2.25;0.80;;;24.50;99.90;;;;;;12471847;28;20083;-82
2022/07/12 14:19:08;;;;;;;0.80;0.60;;;24.40;99.90;;;;;;12471645;28;20136;-83
2022/07/12 14:25:10;;;;;;;1.98;0.60;;;24.20;99.90;;;;;;12485940;28;20042;-83
2022/07/12 14:31:12;;;;;;;5.13;0.70;;;24.00;99.90;;;;;;12480996;28;20496;-82
2022/07/12 14:37:14;;;;;;;2.00;0.68;;;23.90;99.90;;;;;;12466435;28;20424;-82
2022/07/12 14:43:16;;;;;;;2.95;0.50;;;23.90;99.90;;;;;;12475152;28;20106;-82
2022/07/12 14:49:19;;;;;;;4.53;0.77;;;23.80;99.90;;;;;;12446741;28;20133;-83
2022/07/12 14:55:21;;;;;;;6.13;0.77;;;23.70;99.90;;;;;;12480408;28;20136;-82
2022/07/12 15:01:23;;;;;;;4.53;0.68;;;23.60;99.90;;;;;;12478942;28;20045;-83
2022/07/12 15:07:24;;;;;;;4.70;0.88;;;23.60;99.90;;;;;;12465261;28;20094;-83
2022/07/12 15:13:29;;;;;;;2.10;0.50;;;23.60;99.90;;;;;;12466205;28;20049;-83
2022/07/12 15:19:30;;;;;;;1.20;0.57;;;23.50;99.90;;;;;;12458963;28;20046;-83
2022/07/12 15:25:32;;;;;;;1.20;0.63;;;23.60;99.90;;;;;;12445721;28;20049;-83
2022/07/12 15:31:35;;;;;;;1.90;0.68;;;23.70;99.90;;;;;;12461206;28;20455;-83
2022/07/12 15:37:38;;;;;;;3.35;0.70;;;23.70;99.90;;;;;;12445265;28;20115;-82
2022/07/12 15:43:41;;;;;;;1.70;0.50;;;23.80;99.90;;;;;;12459979;28;20136;-83
2022/07/12 15:49:43;;;;;;;5.53;0.70;;;23.90;99.90;;;;;;12479188;28;20049;-83
2022/07/12 15:55:45;;;;;;;2.25;0.93;;;24.00;99.90;;;;;;12466400;28;20088;-83
2022/07/12 16:01:47;;;;;;;0.98;0.50;;;23.80;99.90;;;;;;12483763;28;20090;-82
2022/07/12 16:07:51;;;;;;;0.67;0.43;;;23.70;99.90;;;;;;12449217;28;20145;-83
2022/07/12 16:13:53;;;;;;;1.73;0.60;;;23.60;99.90;;;;;;12479379;28;20073;-84
2022/07/12 16:19:55;;;;;;;2.53;0.57;;;23.50;99.90;;;;;;12446938;28;20418;-84
2022/07/12 16:25:57;;;;;;;1.58;0.77;;;23.40;99.90;;;;;;12458599;28;20046;-83
2022/07/12 16:32:04;;;;;;;2.17;0.80;;;23.30;99.90;;;;;;12450755;28;20049;-83
2022/07/12 16:38:13;;;;;;;1.45;0.77;;;23.20;99.90;;;;;;12460399;28;20061;-83
2022/07/12 16:44:15;;;;;;;1.38;0.70;;;23.10;99.90;;;;;;12444621;28;20050;-83
2022/07/12 16:50:17;;;;;;;2.88;0.85;;;23.10;99.90;;;;;;12489085;28;20059;-84
2022/07/12 16:56:27;;;;;;;1.40;0.60;;;23.10;99.90;;;;;;12463381;28;20056;-82
2022/07/12 17:02:30;;;;;;;1.83;0.75;;;23.00;99.90;;;;;;12445724;28;20052;-83
2022/07/12 17:08:31;;;;;;;1.38;0.77;;;23.00;99.90;;;;;;12490516;28;20076;-84
2022/07/12 17:14:33;;;;;;;2.60;0.60;;;22.80;99.90;;;;;;12496345;28;20452;-84
2022/07/12 17:20:35;;;;;;;1.98;0.73;;;22.90;99.90;;;;;;12469289;28;20046;-83
2022/07/12 17:26:37;;;;;;;1.70;0.60;;;23.20;99.90;;;;;;12435733;28;20049;-82
2022/07/12 17:32:40;;;;;;;4.00;0.80;;;23.40;99.90;;;;;;12464166;28;20134;-83
2022/07/12 17:38:42;;;;;;;;;;;23.50;99.90;;;;;;12468306;28;20133;-83
2022/07/12 17:44:44;;;;;;;2.78;0.60;;;23.70;99.90;;;;;;12472238;28;20300;-83
2022/07/12 17:50:46;;;;;;;0.80;0.50;;;23.90;99.90;;;;;;12447052;28;20045;-83
2022/07/12 17:56:55;;;;;;;0.50;0.50;;;24.20;99.90;;;;;;12452500;28;20050;-85
2022/07/12 18:02:58;;;;;;;1.10;0.60;;;24.80;99.90;;;;;;12456064;28;20667;-84
2022/07/12 18:09:04;;;;;;;2.10;0.77;;;25.20;99.90;;;;;;12461451;28;20045;-84
2022/07/12 18:15:06;;;;;;;2.95;0.73;;;25.10;99.90;;;;;;12475828;28;20095;-84
2022/07/12 18:21:08;;;;;;;1.50;0.70;;;24.90;99.90;;;;;;12435553;28;20046;-83
2022/07/12 18:27:10;;;;;;;1.50;0.70;;;24.50;99.90;;;;;;12463405;28;20531;-83
2022/07/12 18:33:12;;;;;;;3.67;0.70;;;24.20;99.90;;;;;;12451294;28;20091;-82
2022/07/12 18:39:14;;;;;;;1.40;0.60;;;23.90;99.90;;;;;;12450364;28;20046;-82
2022/07/12 18:45:15;;;;;;;0.93;0.57;;;23.60;99.90;;;;;;12444566;28;20510;-83
2022/07/12 18:51:17;;;;;;;2.10;0.57;;;23.40;99.90;;;;;;12470150;28;20072;-83
2022/07/12 18:57:19;;;;;;;1.25;0.50;;;23.20;99.90;;;;;;12463460;28;20489;-84
2022/07/12 19:03:22;;;;;;;1.88;0.70;;;23.10;99.90;;;;;;12485673;28;20445;-82
2022/07/12 19:09:24;;;;;;;;;;;23.10;99.90;;;;;;12477651;28;20057;-83
2022/07/12 19:15:27;;;;;;;0.55;0.50;;;22.90;99.90;;;;;;12449128;28;19921;-83
2022/07/12 19:21:32;;;;;;;0.70;0.50;;;22.80;99.90;;;;;;12463877;28;20493;-83
2022/07/12 19:27:35;;;;;;;2.40;0.90;;;22.80;99.90;;;;;;12457344;28;20041;-83
2022/07/12 19:33:36;;;;;;;2.30;0.80;;;22.60;99.90;;;;;;12451423;28;20099;-82
2022/07/12 19:39:38;;;;;;;1.40;0.70;;;22.20;99.90;;;;;;12479527;28;20045;-82
2022/07/12 19:45:40;;;;;;;2.20;0.80;;;21.90;99.90;;;;;;12507135;28;20142;-83
2022/07/12 19:51:42;;;;;;;1.65;1.00;;;21.60;99.90;;;;;;12478207;28;20117;-83
2022/07/12 19:57:43;;;;;;;1.63;0.70;;;21.40;99.90;;;;;;12455295;28;20558;-82
2022/07/12 20:03:45;;;;;;;2.17;1.02;;;21.30;99.90;;;;;;12460798;28;20086;-82
2022/07/12 20:09:47;;;;;;;3.28;0.85;;;20.90;99.90;;;;;;12454946;28;20068;-82
2022/07/12 20:15:49;;;;;;;3.53;0.80;;;20.70;99.90;;;;;;12476990;28;20045;-82
2022/07/12 20:21:51;;;;;;;3.55;0.90;;;20.70;99.90;;;;;;12460091;28;20487;-83
2022/07/12 20:27:53;;;;;;;2.17;0.90;;;20.70;99.90;;;;;;12438337;28;20083;-82
2022/07/12 20:40:15;;;;;;;1.85;0.93;;;20.60;99.90;;;;;;12469081;28;20049;-83
2022/07/12 20:46:17;;;;;;;2.13;0.80;;;20.40;99.90;;;;;;12451059;28;20301;-83
2022/07/12 20:52:19;;;;;;;1.85;0.90;;;20.20;99.90;;;;;;12438835;28;20133;-81
2022/07/12 20:58:21;;;;;;;1.73;1.00;;;20.10;99.90;;;;;;12452849;28;20049;-82
2022/07/12 21:04:23;;;;;;;3.55;0.88;;;19.90;99.90;;;;;;12440728;28;20046;-82
2022/07/12 21:10:25;;;;;;;1.50;0.90;;;19.70;99.90;;;;;;12431684;28;20037;-83
2022/07/12 21:16:27;;;;;;;1.70;0.80;;;19.60;99.90;;;;;;12450604;28;20157;-81
2022/07/12 21:22:28;;;;;;;3.33;1.08;;;19.40;99.90;;;;;;12454839;28;20042;-82
2022/07/12 21:28:32;;;;;;;2.08;1.00;;;19.30;99.90;;;;;;12426152;28;20126;-84
2022/07/12 21:34:34;;;;;;;2.28;0.70;;;19.40;99.90;;;;;;12488251;28;20103;-84
2022/07/12 21:40:36;;;;;;;1.65;0.70;;;19.60;99.90;;;;;;12466655;28;20107;-82
2022/07/12 21:46:38;;;;;;;3.45;0.90;;;19.40;99.90;;;;;;12442878;28;20071;-82
2022/07/12 21:52:40;;;;;;;1.15;0.75;;;19.60;99.90;;;;;;12460059;28;20473;-83
2022/07/12 21:58:43;;;;;;;1.73;0.77;;;19.90;99.90;;;;;;12452773;28;20103;-82
2022/07/12 22:04:45;;;;;;;2.95;0.90;;;20.00;99.90;;;;;;12449813;28;20084;-82
2022/07/12 22:10:48;;;;;;;3.08;0.85;;;19.90;99.90;;;;;;12458462;28;20052;-83
2022/07/12 22:16:49;;;;;;;2.33;1.00;;;19.80;99.90;;;;;;12467116;28;20425;-83
2022/07/12 22:22:51;;;;;;;1.80;1.02;;;19.80;99.90;;;;;;12436877;28;20046;-83
2022/07/12 22:28:53;;;;;;;2.67;0.90;;;19.90;99.90;;;;;;12419246;28;20041;-82
2022/07/12 22:34:55;;;;;;;2.08;0.90;;;19.90;99.90;;;;;;12460853;28;20053;-83
2022/07/12 22:40:57;;;;;;;1.15;0.80;;;19.80;99.90;;;;;;12458118;28;20587;-83
2022/07/12 22:47:00;;;;;;;2.13;0.73;;;20.20;99.90;;;;;;12462856;28;20182;-83
2022/07/12 22:53:01;;;;;;;1.10;0.68;;;20.50;99.90;;;;;;12441950;28;20050;-83
2022/07/12 22:59:03;;;;;;;1.38;0.70;;;20.80;99.90;;;;;;12469476;28;20113;-83
2022/07/12 23:05:05;;;;;;;1.17;0.70;;;21.10;99.90;;;;;;12464384;28;20102;-82
2022/07/12 23:11:07;;;;;;;1.23;0.70;;;21.20;99.90;;;;;;12446807;28;20080;-82
2022/07/12 23:17:09;;;;;;;2.42;0.52;;;21.20;99.90;;;;;;12466987;28;20129;-82
2022/07/12 23:23:11;;;;;;;2.22;1.23;;;21.00;99.90;;;;;;12452388;28;20136;-82
2022/07/12 23:29:13;;;;;;;3.60;1.25;;;21.00;99.90;;;;;;12460564;28;20038;-82
2022/07/12 23:35:15;;;;;;;5.13;1.27;;;20.80;99.90;;;;;;12452291;28;20099;-82
2022/07/12 23:41:16;;;;;;;3.75;1.60;;;20.40;99.90;;;;;;12445166;28;20468;-82
2022/07/12 23:47:18;;;;;;;3.50;1.42;;;20.10;99.90;;;;;;12451591;28;20413;-83
2022/07/12 23:53:20;;;;;;;4.18;1.55;;;20.00;99.90;;;;;;12452310;28;20065;-82
2022/07/12 23:59:22;;;;;;;2.78;1.60;;;19.90;99.90;;;;;;12457605;28;20472;-82
